sensor_id;sensor_type;location;lat;lon;timestamp;P1;durP1;ratioP1;P2;durP2;ratioP2
49217;SDS011;35045;51.194;7.268;2023-05-14T00:00:00;11.10;;;6.75;;
49217;SDS011;35045;51.194;7.268;2023-05-14T00:02:26;9.27;;;6.57;;
49217;SDS011;35045;51.194;7.268;2023-05-14T00:04:53;9.00;;;6.22;;
49217;SDS011;35045;51.194;7.268;2023-05-14T00:07:19;10.63;;;6.35;;
49217;SDS011;35045;51.194;7.268;2023-05-14T00:09:45;10.07;;;7.10;;
49217;SDS011;35045;51.194;7.268;2023-05-14T00:12:11;8.90;;;6.60;;
49217;SDS011;35045;51.194;7.268;2023-05-14T00:14:37;10.48;;;6.55;;
49217;SDS011;35045;51.194;7.268;2023-05-14T00:17:03;9.20;;;6.82;;
49217;SDS011;35045;51.194;7.268;2023-05-14T00:19:31;8.02;;;6.07;;
49217;SDS011;35045;51.194;7.268;2023-05-14T00:21:57;9.48;;;6.68;;
49217;SDS011;35045;51.194;7.268;2023-05-14T00:24:23;9.35;;;6.85;;
49217;SDS011;35045;51.194;7.268;2023-05-14T00:26:49;10.13;;;6.50;;
49217;SDS011;35045;51.194;7.268;2023-05-14T00:29:16;8.18;;;6.38;;
49217;SDS011;35045;51.194;7.268;2023-05-14T00:31:42;10.25;;;7.47;;
49217;SDS011;35045;51.194;7.268;2023-05-14T00:34:08;7.93;;;6.20;;
49217;SDS011;35045;51.194;7.268;2023-05-14T00:36:34;10.13;;;6.63;;
49217;SDS011;35045;51.194;7.268;2023-05-14T00:39:00;9.10;;;6.60;;
49217;SDS011;35045;51.194;7.268;2023-05-14T00:41:26;9.88;;;6.90;;
49217;SDS011;35045;51.194;7.268;2023-05-14T00:43:52;9.80;;;6.40;;
49217;SDS011;35045;51.194;7.268;2023-05-14T00:46:18;10.20;;;7.07;;
49217;SDS011;35045;51.194;7.268;2023-05-14T00:48:45;9.82;;;7.18;;
49217;SDS011;35045;51.194;7.268;2023-05-14T00:51:11;9.63;;;6.53;;
49217;SDS011;35045;51.194;7.268;2023-05-14T00:53:37;9.48;;;6.82;;
49217;SDS011;35045;51.194;7.268;2023-05-14T00:56:04;9.95;;;7.10;;
49217;SDS011;35045;51.194;7.268;2023-05-14T00:58:31;11.52;;;6.90;;
49217;SDS011;35045;51.194;7.268;2023-05-14T01:00:57;9.32;;;6.80;;
49217;SDS011;35045;51.194;7.268;2023-05-14T01:03:23;10.65;;;6.93;;
49217;SDS011;35045;51.194;7.268;2023-05-14T01:06:02;10.88;;;6.80;;
49217;SDS011;35045;51.194;7.268;2023-05-14T01:14:30;10.45;;;6.70;;
49217;SDS011;35045;51.194;7.268;2023-05-14T01:17:14;8.75;;;6.93;;
49217;SDS011;35045;51.194;7.268;2023-05-14T01:19:45;9.80;;;7.03;;
49217;SDS011;35045;51.194;7.268;2023-05-14T01:22:12;9.30;;;6.95;;
49217;SDS011;35045;51.194;7.268;2023-05-14T01:24:39;8.05;;;6.07;;
49217;SDS011;35045;51.194;7.268;2023-05-14T01:29:36;8.82;;;6.38;;
49217;SDS011;35045;51.194;7.268;2023-05-14T01:32:05;10.38;;;6.88;;
49217;SDS011;35045;51.194;7.268;2023-05-14T01:34:32;9.50;;;6.32;;
49217;SDS011;35045;51.194;7.268;2023-05-14T01:37:00;8.95;;;6.90;;
49217;SDS011;35045;51.194;7.268;2023-05-14T01:39:29;9.07;;;7.07;;
49217;SDS011;35045;51.194;7.268;2023-05-14T01:41:57;9.73;;;6.85;;
49217;SDS011;35045;51.194;7.268;2023-05-14T01:44:24;8.77;;;6.57;;
49217;SDS011;35045;51.194;7.268;2023-05-14T01:46:51;9.88;;;6.38;;
49217;SDS011;35045;51.194;7.268;2023-05-14T01:49:17;9.38;;;7.10;;
49217;SDS011;35045;51.194;7.268;2023-05-14T01:51:44;11.43;;;7.47;;
49217;SDS011;35045;51.194;7.268;2023-05-14T01:54:10;9.23;;;6.93;;
49217;SDS011;35045;51.194;7.268;2023-05-14T01:56:36;9.60;;;6.93;;
49217;SDS011;35045;51.194;7.268;2023-05-14T01:59:02;10.38;;;6.70;;
49217;SDS011;35045;51.194;7.268;2023-05-14T02:01:28;9.88;;;6.93;;
49217;SDS011;35045;51.194;7.268;2023-05-14T02:03:54;10.70;;;7.30;;
49217;SDS011;35045;51.194;7.268;2023-05-14T02:06:21;8.77;;;7.03;;
49217;SDS011;35045;51.194;7.268;2023-05-14T02:08:47;9.73;;;7.25;;
49217;SDS011;35045;51.194;7.268;2023-05-14T02:11:13;9.57;;;6.63;;
49217;SDS011;35045;51.194;7.268;2023-05-14T02:13:40;9.63;;;6.88;;
49217;SDS011;35045;51.194;7.268;2023-05-14T02:16:06;9.10;;;6.78;;
49217;SDS011;35045;51.194;7.268;2023-05-14T02:18:32;12.10;;;7.20;;
49217;SDS011;35045;51.194;7.268;2023-05-14T02:20:59;10.43;;;6.78;;
49217;SDS011;35045;51.194;7.268;2023-05-14T02:23:25;9.45;;;7.18;;
49217;SDS011;35045;51.194;7.268;2023-05-14T02:25:55;9.52;;;6.72;;
49217;SDS011;35045;51.194;7.268;2023-05-14T02:28:22;10.85;;;6.85;;
49217;SDS011;35045;51.194;7.268;2023-05-14T02:30:48;9.73;;;7.30;;
49217;SDS011;35045;51.194;7.268;2023-05-14T02:33:14;10.63;;;7.18;;
49217;SDS011;35045;51.194;7.268;2023-05-14T02:35:40;8.85;;;6.88;;
49217;SDS011;35045;51.194;7.268;2023-05-14T02:38:06;10.35;;;7.45;;
49217;SDS011;35045;51.194;7.268;2023-05-14T02:40:33;9.77;;;7.78;;
49217;SDS011;35045;51.194;7.268;2023-05-14T02:43:01;9.27;;;7.25;;
49217;SDS011;35045;51.194;7.268;2023-05-14T02:45:27;11.00;;;7.00;;
49217;SDS011;35045;51.194;7.268;2023-05-14T02:47:53;9.50;;;6.85;;
49217;SDS011;35045;51.194;7.268;2023-05-14T02:50:19;10.27;;;6.82;;
49217;SDS011;35045;51.194;7.268;2023-05-14T02:52:46;9.07;;;6.75;;
49217;SDS011;35045;51.194;7.268;2023-05-14T02:55:12;12.02;;;8.07;;
49217;SDS011;35045;51.194;7.268;2023-05-14T02:57:38;10.13;;;7.20;;
49217;SDS011;35045;51.194;7.268;2023-05-14T03:00:04;9.35;;;7.10;;
49217;SDS011;35045;51.194;7.268;2023-05-14T03:02:31;9.48;;;7.40;;
49217;SDS011;35045;51.194;7.268;2023-05-14T03:04:57;9.82;;;7.15;;
49217;SDS011;35045;51.194;7.268;2023-05-14T03:07:23;9.15;;;7.07;;
49217;SDS011;35045;51.194;7.268;2023-05-14T03:09:49;9.80;;;7.05;;
49217;SDS011;35045;51.194;7.268;2023-05-14T03:12:16;9.93;;;7.18;;
49217;SDS011;35045;51.194;7.268;2023-05-14T03:14:42;9.27;;;7.05;;
49217;SDS011;35045;51.194;7.268;2023-05-14T03:17:09;9.63;;;6.82;;
49217;SDS011;35045;51.194;7.268;2023-05-14T03:19:35;9.73;;;6.95;;
49217;SDS011;35045;51.194;7.268;2023-05-14T03:22:01;9.25;;;6.53;;
49217;SDS011;35045;51.194;7.268;2023-05-14T03:24:27;8.38;;;6.45;;
49217;SDS011;35045;51.194;7.268;2023-05-14T03:26:53;9.95;;;6.90;;
49217;SDS011;35045;51.194;7.268;2023-05-14T03:29:20;8.65;;;6.32;;
49217;SDS011;35045;51.194;7.268;2023-05-14T03:31:46;8.98;;;6.80;;
49217;SDS011;35045;51.194;7.268;2023-05-14T03:34:12;9.43;;;6.55;;
49217;SDS011;35045;51.194;7.268;2023-05-14T03:36:38;10.30;;;6.15;;
49217;SDS011;35045;51.194;7.268;2023-05-14T03:39:04;9.82;;;6.35;;
49217;SDS011;35045;51.194;7.268;2023-05-14T03:41:31;8.20;;;5.93;;
49217;SDS011;35045;51.194;7.268;2023-05-14T03:43:59;8.48;;;6.10;;
49217;SDS011;35045;51.194;7.268;2023-05-14T03:46:25;9.45;;;5.85;;
49217;SDS011;35045;51.194;7.268;2023-05-14T03:48:52;10.02;;;6.30;;
49217;SDS011;35045;51.194;7.268;2023-05-14T03:51:18;8.98;;;6.07;;
49217;SDS011;35045;51.194;7.268;2023-05-14T03:53:44;10.25;;;6.63;;
49217;SDS011;35045;51.194;7.268;2023-05-14T03:56:10;8.40;;;5.90;;
49217;SDS011;35045;51.194;7.268;2023-05-14T03:58:36;8.05;;;6.00;;
49217;SDS011;35045;51.194;7.268;2023-05-14T04:01:03;8.35;;;5.93;;
49217;SDS011;35045;51.194;7.268;2023-05-14T04:03:29;7.93;;;5.55;;
49217;SDS011;35045;51.194;7.268;2023-05-14T04:05:55;8.00;;;5.72;;
49217;SDS011;35045;51.194;7.268;2023-05-14T04:08:21;8.20;;;6.00;;
49217;SDS011;35045;51.194;7.268;2023-05-14T04:10:48;9.23;;;6.28;;
49217;SDS011;35045;51.194;7.268;2023-05-14T04:13:14;8.15;;;6.10;;
49217;SDS011;35045;51.194;7.268;2023-05-14T04:15:40;9.05;;;5.60;;
49217;SDS011;35045;51.194;7.268;2023-05-14T04:18:06;8.05;;;6.00;;
49217;SDS011;35045;51.194;7.268;2023-05-14T04:20:33;9.32;;;6.30;;
49217;SDS011;35045;51.194;7.268;2023-05-14T04:22:59;11.00;;;5.97;;
49217;SDS011;35045;51.194;7.268;2023-05-14T04:25:25;10.15;;;6.10;;
49217;SDS011;35045;51.194;7.268;2023-05-14T04:27:51;8.77;;;6.20;;
49217;SDS011;35045;51.194;7.268;2023-05-14T04:30:17;9.35;;;6.22;;
49217;SDS011;35045;51.194;7.268;2023-05-14T04:32:43;11.20;;;6.28;;
49217;SDS011;35045;51.194;7.268;2023-05-14T04:35:10;10.05;;;6.55;;
49217;SDS011;35045;51.194;7.268;2023-05-14T04:37:37;10.18;;;6.50;;
49217;SDS011;35045;51.194;7.268;2023-05-14T04:40:04;10.48;;;6.60;;
49217;SDS011;35045;51.194;7.268;2023-05-14T04:42:31;9.30;;;6.60;;
49217;SDS011;35045;51.194;7.268;2023-05-14T04:44:57;7.40;;;5.70;;
49217;SDS011;35045;51.194;7.268;2023-05-14T04:47:24;8.38;;;5.97;;
49217;SDS011;35045;51.194;7.268;2023-05-14T04:49:51;8.52;;;6.15;;
49217;SDS011;35045;51.194;7.268;2023-05-14T04:52:17;9.20;;;6.15;;
49217;SDS011;35045;51.194;7.268;2023-05-14T04:54:43;9.68;;;6.30;;
49217;SDS011;35045;51.194;7.268;2023-05-14T04:57:09;8.23;;;5.57;;
49217;SDS011;35045;51.194;7.268;2023-05-14T04:59:35;8.15;;;5.85;;
49217;SDS011;35045;51.194;7.268;2023-05-14T05:02:01;10.95;;;5.65;;
49217;SDS011;35045;51.194;7.268;2023-05-14T05:04:28;10.15;;;6.00;;
49217;SDS011;35045;51.194;7.268;2023-05-14T05:06:54;8.70;;;6.07;;
49217;SDS011;35045;51.194;7.268;2023-05-14T05:09:20;8.70;;;6.30;;
49217;SDS011;35045;51.194;7.268;2023-05-14T05:11:46;9.57;;;5.82;;
49217;SDS011;35045;51.194;7.268;2023-05-14T05:14:12;8.00;;;6.25;;
49217;SDS011;35045;51.194;7.268;2023-05-14T05:16:38;8.55;;;6.28;;
49217;SDS011;35045;51.194;7.268;2023-05-14T05:19:05;9.35;;;6.28;;
49217;SDS011;35045;51.194;7.268;2023-05-14T05:21:31;9.82;;;6.55;;
49217;SDS011;35045;51.194;7.268;2023-05-14T05:23:57;8.68;;;6.05;;
49217;SDS011;35045;51.194;7.268;2023-05-14T05:26:24;10.40;;;6.57;;
49217;SDS011;35045;51.194;7.268;2023-05-14T05:28:51;9.48;;;6.72;;
49217;SDS011;35045;51.194;7.268;2023-05-14T05:31:17;8.55;;;5.95;;
49217;SDS011;35045;51.194;7.268;2023-05-14T05:33:44;7.75;;;6.28;;
49217;SDS011;35045;51.194;7.268;2023-05-14T05:36:10;9.80;;;6.45;;
49217;SDS011;35045;51.194;7.268;2023-05-14T05:38:36;8.80;;;6.10;;
49217;SDS011;35045;51.194;7.268;2023-05-14T05:41:02;8.23;;;5.70;;
49217;SDS011;35045;51.194;7.268;2023-05-14T05:43:29;8.63;;;5.70;;
49217;SDS011;35045;51.194;7.268;2023-05-14T05:45:55;8.00;;;5.75;;
49217;SDS011;35045;51.194;7.268;2023-05-14T05:48:21;10.57;;;5.60;;
49217;SDS011;35045;51.194;7.268;2023-05-14T05:50:48;7.93;;;5.43;;
49217;SDS011;35045;51.194;7.268;2023-05-14T05:53:16;7.20;;;5.18;;
49217;SDS011;35045;51.194;7.268;2023-05-14T05:55:42;8.73;;;5.28;;
49217;SDS011;35045;51.194;7.268;2023-05-14T05:58:08;8.25;;;5.05;;
49217;SDS011;35045;51.194;7.268;2023-05-14T06:00:34;8.95;;;4.68;;
49217;SDS011;35045;51.194;7.268;2023-05-14T06:03:00;8.40;;;5.05;;
49217;SDS011;35045;51.194;7.268;2023-05-14T06:05:27;6.90;;;4.10;;
49217;SDS011;35045;51.194;7.268;2023-05-14T06:07:53;6.97;;;4.53;;
49217;SDS011;35045;51.194;7.268;2023-05-14T06:10:19;8.25;;;4.45;;
49217;SDS011;35045;51.194;7.268;2023-05-14T06:12:45;7.82;;;4.88;;
49217;SDS011;35045;51.194;7.268;2023-05-14T06:15:11;5.93;;;3.97;;
49217;SDS011;35045;51.194;7.268;2023-05-14T06:17:37;7.07;;;4.10;;
49217;SDS011;35045;51.194;7.268;2023-05-14T06:20:04;7.93;;;4.45;;
49217;SDS011;35045;51.194;7.268;2023-05-14T06:22:32;10.55;;;4.65;;
49217;SDS011;35045;51.194;7.268;2023-05-14T06:24:59;9.27;;;4.63;;
49217;SDS011;35045;51.194;7.268;2023-05-14T06:27:25;7.35;;;4.20;;
49217;SDS011;35045;51.194;7.268;2023-05-14T06:29:51;6.47;;;4.55;;
49217;SDS011;35045;51.194;7.268;2023-05-14T06:32:17;8.02;;;4.05;;
49217;SDS011;35045;51.194;7.268;2023-05-14T06:34:43;8.57;;;4.03;;
49217;SDS011;35045;51.194;7.268;2023-05-14T06:37:09;6.65;;;3.72;;
49217;SDS011;35045;51.194;7.268;2023-05-14T06:39:36;7.50;;;4.03;;
49217;SDS011;35045;51.194;7.268;2023-05-14T06:42:02;6.53;;;3.60;;
49217;SDS011;35045;51.194;7.268;2023-05-14T06:44:29;6.63;;;4.18;;
49217;SDS011;35045;51.194;7.268;2023-05-14T06:46:56;6.65;;;3.88;;
49217;SDS011;35045;51.194;7.268;2023-05-14T06:49:22;6.85;;;4.15;;
49217;SDS011;35045;51.194;7.268;2023-05-14T06:51:48;6.60;;;3.88;;
49217;SDS011;35045;51.194;7.268;2023-05-14T06:54:14;6.97;;;3.70;;
49217;SDS011;35045;51.194;7.268;2023-05-14T06:56:40;5.53;;;3.45;;
49217;SDS011;35045;51.194;7.268;2023-05-14T06:59:07;6.72;;;3.47;;
49217;SDS011;35045;51.194;7.268;2023-05-14T07:01:33;7.13;;;3.65;;
49217;SDS011;35045;51.194;7.268;2023-05-14T07:03:59;5.45;;;3.40;;
49217;SDS011;35045;51.194;7.268;2023-05-14T07:06:25;7.57;;;3.70;;
49217;SDS011;35045;51.194;7.268;2023-05-14T07:08:51;7.60;;;4.07;;
49217;SDS011;35045;51.194;7.268;2023-05-14T07:11:17;7.40;;;3.80;;
49217;SDS011;35045;51.194;7.268;2023-05-14T07:13:44;6.00;;;3.10;;
49217;SDS011;35045;51.194;7.268;2023-05-14T07:16:10;5.90;;;3.13;;
49217;SDS011;35045;51.194;7.268;2023-05-14T07:18:36;7.60;;;3.20;;
49217;SDS011;35045;51.194;7.268;2023-05-14T07:21:02;7.97;;;3.42;;
49217;SDS011;35045;51.194;7.268;2023-05-14T07:23:32;7.80;;;3.10;;
49217;SDS011;35045;51.194;7.268;2023-05-14T07:26:01;5.43;;;2.90;;
49217;SDS011;35045;51.194;7.268;2023-05-14T07:28:28;5.28;;;2.70;;
49217;SDS011;35045;51.194;7.268;2023-05-14T07:30:54;5.65;;;2.70;;
49217;SDS011;35045;51.194;7.268;2023-05-14T07:33:20;5.68;;;2.85;;
49217;SDS011;35045;51.194;7.268;2023-05-14T07:35:47;7.18;;;2.63;;
49217;SDS011;35045;51.194;7.268;2023-05-14T07:38:13;4.88;;;2.40;;
49217;SDS011;35045;51.194;7.268;2023-05-14T07:40:40;5.95;;;2.47;;
49217;SDS011;35045;51.194;7.268;2023-05-14T07:43:06;4.80;;;2.20;;
49217;SDS011;35045;51.194;7.268;2023-05-14T07:45:32;5.30;;;2.50;;
49217;SDS011;35045;51.194;7.268;2023-05-14T07:47:58;6.05;;;2.15;;
49217;SDS011;35045;51.194;7.268;2023-05-14T07:50:25;6.57;;;2.38;;
49217;SDS011;35045;51.194;7.268;2023-05-14T07:52:51;4.50;;;1.90;;
49217;SDS011;35045;51.194;7.268;2023-05-14T07:55:17;6.82;;;2.70;;
49217;SDS011;35045;51.194;7.268;2023-05-14T07:57:43;5.30;;;2.20;;
49217;SDS011;35045;51.194;7.268;2023-05-14T08:00:10;5.43;;;2.38;;
49217;SDS011;35045;51.194;7.268;2023-05-14T08:02:37;5.30;;;2.28;;
49217;SDS011;35045;51.194;7.268;2023-05-14T08:05:03;5.60;;;2.08;;
49217;SDS011;35045;51.194;7.268;2023-05-14T08:07:30;4.47;;;1.90;;
49217;SDS011;35045;51.194;7.268;2023-05-14T08:09:56;4.32;;;2.03;;
49217;SDS011;35045;51.194;7.268;2023-05-14T08:12:22;4.32;;;1.90;;
49217;SDS011;35045;51.194;7.268;2023-05-14T08:14:48;4.43;;;1.80;;
49217;SDS011;35045;51.194;7.268;2023-05-14T08:17:14;4.80;;;2.20;;
49217;SDS011;35045;51.194;7.268;2023-05-14T08:19:41;4.85;;;2.05;;
49217;SDS011;35045;51.194;7.268;2023-05-14T08:22:07;6.20;;;2.67;;
49217;SDS011;35045;51.194;7.268;2023-05-14T08:24:33;6.18;;;2.15;;
49217;SDS011;35045;51.194;7.268;2023-05-14T08:26:59;12.68;;;2.50;;
49217;SDS011;35045;51.194;7.268;2023-05-14T08:29:26;5.65;;;2.53;;
49217;SDS011;35045;51.194;7.268;2023-05-14T08:31:53;5.47;;;2.58;;
49217;SDS011;35045;51.194;7.268;2023-05-14T08:34:19;5.22;;;2.60;;
49217;SDS011;35045;51.194;7.268;2023-05-14T08:36:45;6.53;;;2.90;;
49217;SDS011;35045;51.194;7.268;2023-05-14T08:39:11;4.63;;;2.13;;
49217;SDS011;35045;51.194;7.268;2023-05-14T08:41:38;4.97;;;2.42;;
49217;SDS011;35045;51.194;7.268;2023-05-14T08:44:15;5.72;;;2.60;;
49217;SDS011;35045;51.194;7.268;2023-05-14T08:46:44;4.80;;;2.28;;
49217;SDS011;35045;51.194;7.268;2023-05-14T08:49:14;4.75;;;2.20;;
49217;SDS011;35045;51.194;7.268;2023-05-14T08:51:53;4.78;;;2.13;;
49217;SDS011;35045;51.194;7.268;2023-05-14T08:54:21;4.40;;;2.10;;
49217;SDS011;35045;51.194;7.268;2023-05-14T08:56:50;4.80;;;2.35;;
49217;SDS011;35045;51.194;7.268;2023-05-14T08:59:16;5.60;;;2.30;;
49217;SDS011;35045;51.194;7.268;2023-05-14T09:01:43;5.93;;;2.28;;
49217;SDS011;35045;51.194;7.268;2023-05-14T09:04:15;4.68;;;2.15;;
49217;SDS011;35045;51.194;7.268;2023-05-14T09:06:45;5.28;;;2.40;;
49217;SDS011;35045;51.194;7.268;2023-05-14T09:09:14;4.18;;;2.10;;
49217;SDS011;35045;51.194;7.268;2023-05-14T09:11:41;6.30;;;2.28;;
49217;SDS011;35045;51.194;7.268;2023-05-14T09:14:08;5.40;;;2.30;;
49217;SDS011;35045;51.194;7.268;2023-05-14T09:16:34;5.22;;;2.40;;
49217;SDS011;35045;51.194;7.268;2023-05-14T09:19:02;4.78;;;2.15;;
49217;SDS011;35045;51.194;7.268;2023-05-14T09:21:29;4.45;;;1.92;;
49217;SDS011;35045;51.194;7.268;2023-05-14T09:23:56;4.80;;;2.33;;
49217;SDS011;35045;51.194;7.268;2023-05-14T09:26:23;4.93;;;2.28;;
49217;SDS011;35045;51.194;7.268;2023-05-14T09:28:53;4.78;;;2.05;;
49217;SDS011;35045;51.194;7.268;2023-05-14T09:31:21;6.22;;;2.50;;
49217;SDS011;35045;51.194;7.268;2023-05-14T09:33:51;5.43;;;2.10;;
49217;SDS011;35045;51.194;7.268;2023-05-14T09:36:17;4.90;;;2.25;;
49217;SDS011;35045;51.194;7.268;2023-05-14T09:38:44;5.30;;;2.35;;
49217;SDS011;35045;51.194;7.268;2023-05-14T09:41:10;4.25;;;2.20;;
49217;SDS011;35045;51.194;7.268;2023-05-14T09:43:37;4.90;;;2.22;;
49217;SDS011;35045;51.194;7.268;2023-05-14T09:46:03;6.45;;;2.80;;
49217;SDS011;35045;51.194;7.268;2023-05-14T09:48:29;5.43;;;2.30;;
49217;SDS011;35045;51.194;7.268;2023-05-14T09:50:55;7.00;;;2.53;;
49217;SDS011;35045;51.194;7.268;2023-05-14T09:53:21;5.38;;;2.42;;
49217;SDS011;35045;51.194;7.268;2023-05-14T09:55:47;5.82;;;2.40;;
49217;SDS011;35045;51.194;7.268;2023-05-14T09:58:13;4.70;;;2.20;;
49217;SDS011;35045;51.194;7.268;2023-05-14T10:00:43;4.60;;;2.10;;
49217;SDS011;35045;51.194;7.268;2023-05-14T10:03:12;4.82;;;2.42;;
49217;SDS011;35045;51.194;7.268;2023-05-14T10:05:40;6.18;;;2.28;;
49217;SDS011;35045;51.194;7.268;2023-05-14T10:08:09;6.40;;;2.33;;
49217;SDS011;35045;51.194;7.268;2023-05-14T10:10:39;5.53;;;2.40;;
49217;SDS011;35045;51.194;7.268;2023-05-14T10:13:06;6.75;;;2.50;;
49217;SDS011;35045;51.194;7.268;2023-05-14T10:15:47;4.43;;;2.25;;
49217;SDS011;35045;51.194;7.268;2023-05-14T10:18:17;5.55;;;2.38;;
49217;SDS011;35045;51.194;7.268;2023-05-14T10:20:59;6.30;;;2.53;;
49217;SDS011;35045;51.194;7.268;2023-05-14T10:23:31;5.10;;;2.35;;
49217;SDS011;35045;51.194;7.268;2023-05-14T10:25:58;6.40;;;2.38;;
49217;SDS011;35045;51.194;7.268;2023-05-14T10:28:25;6.18;;;2.30;;
49217;SDS011;35045;51.194;7.268;2023-05-14T10:30:53;5.28;;;2.50;;
49217;SDS011;35045;51.194;7.268;2023-05-14T10:33:19;5.30;;;2.50;;
49217;SDS011;35045;51.194;7.268;2023-05-14T10:38:29;4.65;;;2.13;;
49217;SDS011;35045;51.194;7.268;2023-05-14T10:43:27;6.70;;;2.50;;
49217;SDS011;35045;51.194;7.268;2023-05-14T10:45:55;4.68;;;2.03;;
49217;SDS011;35045;51.194;7.268;2023-05-14T10:48:23;8.52;;;2.80;;
49217;SDS011;35045;51.194;7.268;2023-05-14T10:50:50;4.60;;;2.20;;
49217;SDS011;35045;51.194;7.268;2023-05-14T10:53:17;5.38;;;2.40;;
49217;SDS011;35045;51.194;7.268;2023-05-14T10:55:44;4.60;;;2.25;;
49217;SDS011;35045;51.194;7.268;2023-05-14T10:58:10;7.40;;;2.50;;
49217;SDS011;35045;51.194;7.268;2023-05-14T11:00:37;6.80;;;2.63;;
49217;SDS011;35045;51.194;7.268;2023-05-14T11:03:04;5.40;;;2.20;;
49217;SDS011;35045;51.194;7.268;2023-05-14T11:05:31;9.77;;;2.78;;
49217;SDS011;35045;51.194;7.268;2023-05-14T11:08:00;4.93;;;2.35;;
49217;SDS011;35045;51.194;7.268;2023-05-14T11:10:30;10.25;;;2.80;;
49217;SDS011;35045;51.194;7.268;2023-05-14T11:12:57;6.68;;;2.58;;
49217;SDS011;35045;51.194;7.268;2023-05-14T11:15:24;5.38;;;2.33;;
49217;SDS011;35045;51.194;7.268;2023-05-14T11:17:51;5.13;;;2.55;;
49217;SDS011;35045;51.194;7.268;2023-05-14T11:20:18;5.70;;;2.42;;
49217;SDS011;35045;51.194;7.268;2023-05-14T11:22:45;4.63;;;1.98;;
49217;SDS011;35045;51.194;7.268;2023-05-14T11:25:12;5.43;;;2.17;;
49217;SDS011;35045;51.194;7.268;2023-05-14T11:27:40;5.60;;;2.22;;
49217;SDS011;35045;51.194;7.268;2023-05-14T11:30:11;5.00;;;2.25;;
49217;SDS011;35045;51.194;7.268;2023-05-14T11:32:45;6.65;;;2.28;;
49217;SDS011;35045;51.194;7.268;2023-05-14T11:35:13;6.95;;;2.30;;
49217;SDS011;35045;51.194;7.268;2023-05-14T11:37:40;5.80;;;2.50;;
49217;SDS011;35045;51.194;7.268;2023-05-14T11:40:13;4.80;;;2.22;;
49217;SDS011;35045;51.194;7.268;2023-05-14T11:42:41;4.90;;;2.42;;
49217;SDS011;35045;51.194;7.268;2023-05-14T11:45:09;4.55;;;2.08;;
49217;SDS011;35045;51.194;7.268;2023-05-14T11:47:37;5.57;;;2.35;;
49217;SDS011;35045;51.194;7.268;2023-05-14T11:50:03;5.20;;;2.40;;
49217;SDS011;35045;51.194;7.268;2023-05-14T11:52:30;6.95;;;2.35;;
49217;SDS011;35045;51.194;7.268;2023-05-14T11:54:56;5.32;;;2.25;;
49217;SDS011;35045;51.194;7.268;2023-05-14T11:57:23;6.05;;;2.45;;
49217;SDS011;35045;51.194;7.268;2023-05-14T11:59:56;5.60;;;2.30;;
49217;SDS011;35045;51.194;7.268;2023-05-14T12:02:22;5.75;;;2.50;;
49217;SDS011;35045;51.194;7.268;2023-05-14T12:04:53;6.13;;;2.72;;
49217;SDS011;35045;51.194;7.268;2023-05-14T12:07:19;5.85;;;2.80;;
49217;SDS011;35045;51.194;7.268;2023-05-14T12:09:46;8.63;;;2.80;;
49217;SDS011;35045;51.194;7.268;2023-05-14T12:12:17;7.43;;;2.80;;
49217;SDS011;35045;51.194;7.268;2023-05-14T12:14:47;6.25;;;2.40;;
49217;SDS011;35045;51.194;7.268;2023-05-14T12:17:18;5.47;;;2.35;;
49217;SDS011;35045;51.194;7.268;2023-05-14T12:19:47;5.40;;;2.40;;
49217;SDS011;35045;51.194;7.268;2023-05-14T12:22:15;8.55;;;2.38;;
49217;SDS011;35045;51.194;7.268;2023-05-14T12:24:56;6.38;;;2.25;;
49217;SDS011;35045;51.194;7.268;2023-05-14T12:27:27;5.20;;;2.30;;
49217;SDS011;35045;51.194;7.268;2023-05-14T12:30:00;5.65;;;2.47;;
49217;SDS011;35045;51.194;7.268;2023-05-14T12:32:38;7.38;;;2.83;;
49217;SDS011;35045;51.194;7.268;2023-05-14T12:35:05;6.63;;;2.30;;
49217;SDS011;35045;51.194;7.268;2023-05-14T12:37:32;5.03;;;1.92;;
49217;SDS011;35045;51.194;7.268;2023-05-14T12:40:01;3.63;;;1.77;;
49217;SDS011;35045;51.194;7.268;2023-05-14T12:42:29;5.70;;;2.30;;
49217;SDS011;35045;51.194;7.268;2023-05-14T12:44:55;5.63;;;2.33;;
49217;SDS011;35045;51.194;7.268;2023-05-14T12:47:21;4.53;;;2.05;;
49217;SDS011;35045;51.194;7.268;2023-05-14T12:49:47;6.57;;;2.30;;
49217;SDS011;35045;51.194;7.268;2023-05-14T12:52:13;6.28;;;1.73;;
49217;SDS011;35045;51.194;7.268;2023-05-14T12:54:42;6.50;;;2.17;;
49217;SDS011;35045;51.194;7.268;2023-05-14T12:57:08;3.92;;;1.88;;
49217;SDS011;35045;51.194;7.268;2023-05-14T12:59:35;3.45;;;1.70;;
49217;SDS011;35045;51.194;7.268;2023-05-14T13:02:01;3.67;;;1.80;;
49217;SDS011;35045;51.194;7.268;2023-05-14T13:04:27;3.20;;;1.60;;
49217;SDS011;35045;51.194;7.268;2023-05-14T13:06:53;4.25;;;1.80;;
49217;SDS011;35045;51.194;7.268;2023-05-14T13:09:19;5.35;;;2.05;;
49217;SDS011;35045;51.194;7.268;2023-05-14T13:11:45;4.75;;;1.70;;
49217;SDS011;35045;51.194;7.268;2023-05-14T13:14:12;5.28;;;2.00;;
49217;SDS011;35045;51.194;7.268;2023-05-14T13:16:38;6.82;;;1.63;;
49217;SDS011;35045;51.194;7.268;2023-05-14T13:19:04;4.28;;;1.80;;
49217;SDS011;35045;51.194;7.268;2023-05-14T13:21:30;4.65;;;2.00;;
49217;SDS011;35045;51.194;7.268;2023-05-14T13:23:56;4.88;;;1.85;;
49217;SDS011;35045;51.194;7.268;2023-05-14T13:26:22;4.70;;;1.80;;
49217;SDS011;35045;51.194;7.268;2023-05-14T13:28:51;3.83;;;1.70;;
49217;SDS011;35045;51.194;7.268;2023-05-14T13:31:17;5.45;;;1.70;;
49217;SDS011;35045;51.194;7.268;2023-05-14T13:33:43;4.25;;;1.85;;
49217;SDS011;35045;51.194;7.268;2023-05-14T13:36:10;4.22;;;1.88;;
49217;SDS011;35045;51.194;7.268;2023-05-14T13:38:37;4.85;;;1.80;;
49217;SDS011;35045;51.194;7.268;2023-05-14T13:41:04;4.63;;;1.88;;
49217;SDS011;35045;51.194;7.268;2023-05-14T13:43:31;5.60;;;2.30;;
49217;SDS011;35045;51.194;7.268;2023-05-14T13:45:58;6.00;;;1.88;;
49217;SDS011;35045;51.194;7.268;2023-05-14T13:48:24;3.97;;;1.63;;
49217;SDS011;35045;51.194;7.268;2023-05-14T13:50:51;3.83;;;1.70;;
49217;SDS011;35045;51.194;7.268;2023-05-14T13:53:21;4.63;;;1.63;;
49217;SDS011;35045;51.194;7.268;2023-05-14T13:55:48;3.92;;;1.50;;
49217;SDS011;35045;51.194;7.268;2023-05-14T13:58:15;4.20;;;1.80;;
49217;SDS011;35045;51.194;7.268;2023-05-14T14:00:41;4.50;;;1.80;;
49217;SDS011;35045;51.194;7.268;2023-05-14T14:03:07;3.22;;;1.45;;
49217;SDS011;35045;51.194;7.268;2023-05-14T14:05:34;4.72;;;1.75;;
49217;SDS011;35045;51.194;7.268;2023-05-14T14:08:01;4.75;;;1.55;;
49217;SDS011;35045;51.194;7.268;2023-05-14T14:10:32;4.03;;;1.48;;
49217;SDS011;35045;51.194;7.268;2023-05-14T14:12:59;4.57;;;1.50;;
49217;SDS011;35045;51.194;7.268;2023-05-14T14:15:25;3.78;;;1.55;;
49217;SDS011;35045;51.194;7.268;2023-05-14T14:17:51;4.00;;;1.60;;
49217;SDS011;35045;51.194;7.268;2023-05-14T14:20:18;2.60;;;1.13;;
49217;SDS011;35045;51.194;7.268;2023-05-14T14:22:44;3.92;;;1.63;;
49217;SDS011;35045;51.194;7.268;2023-05-14T14:25:10;4.80;;;1.63;;
49217;SDS011;35045;51.194;7.268;2023-05-14T14:27:37;3.60;;;1.52;;
49217;SDS011;35045;51.194;7.268;2023-05-14T14:30:08;4.28;;;1.50;;
49217;SDS011;35045;51.194;7.268;2023-05-14T14:32:42;4.75;;;1.67;;
49217;SDS011;35045;51.194;7.268;2023-05-14T14:35:12;3.65;;;1.58;;
49217;SDS011;35045;51.194;7.268;2023-05-14T14:37:40;3.95;;;1.50;;
49217;SDS011;35045;51.194;7.268;2023-05-14T14:40:08;3.53;;;1.50;;
49217;SDS011;35045;51.194;7.268;2023-05-14T14:42:35;3.55;;;1.50;;
49217;SDS011;35045;51.194;7.268;2023-05-14T14:45:03;3.33;;;1.25;;
49217;SDS011;35045;51.194;7.268;2023-05-14T14:47:30;2.97;;;1.27;;
49217;SDS011;35045;51.194;7.268;2023-05-14T14:49:56;2.95;;;1.30;;
49217;SDS011;35045;51.194;7.268;2023-05-14T14:52:23;3.15;;;1.10;;
49217;SDS011;35045;51.194;7.268;2023-05-14T14:54:49;2.72;;;1.17;;
49217;SDS011;35045;51.194;7.268;2023-05-14T14:57:16;3.67;;;1.45;;